Time;durP1;ratioP1;P1;durP2;ratioP2;P2;SDS_P1;SDS_P2;PMS_P1;PMS_P2;Temp;Humidity;BMP_temperature;BMP_pressure;BME280_temperature;BME280_humidity;BME280_pressure;Samples;Min_cycle;Max_cycle;Signal;HPM_P1;HPM_P2
2022/04/17 00:00:11;;;;;;;2.45;1.73;;;;;;;1.51;65.70;100243.84;5115598;28;20054;-81
2022/04/17 00:02:39;;;;;;;3.35;1.55;;;;;;;1.65;65.31;100271.09;5115569;28;20051;-82
2022/04/17 00:05:07;;;;;;;2.72;1.65;;;;;;;1.56;64.83;100250.09;5115818;28;20047;-82
2022/04/17 00:07:35;;;;;;;2.90;1.75;;;;;;;1.54;64.32;100260.31;5117359;28;20062;-80
2022/04/17 00:10:03;;;;;;;1.98;1.45;;;;;;;1.50;64.02;100252.38;5116443;28;20446;-79
2022/04/17 00:12:31;;;;;;;2.05;1.63;;;;;;;1.47;63.51;100249.66;5115406;28;20051;-82
2022/04/17 00:15:00;;;;;;;2.03;1.30;;;;;;;1.46;63.75;100253.91;5115266;28;20101;-81
2022/04/17 00:17:29;;;;;;;1.27;1.10;;;;;;;1.43;63.46;100253.78;5115310;28;20086;-80
2022/04/17 00:19:56;;;;;;;1.60;1.30;;;;;;;1.36;63.45;100239.75;5096967;28;20077;-80
2022/04/17 00:22:23;;;;;;;2.50;1.60;;;;;;;1.23;62.86;100214.25;5114944;28;20470;-81
2022/04/17 00:24:52;;;;;;;1.40;1.30;;;;;;;1.34;62.72;100231.06;5115718;28;20062;-80
2022/04/17 00:27:19;;;;;;;1.52;1.40;;;;;;;1.33;62.73;100233.56;5097161;28;20100;-79
2022/04/17 00:29:46;;;;;;;1.85;1.48;;;;;;;1.40;62.58;100233.94;5115306;28;20073;-82
2022/04/17 00:32:13;;;;;;;1.88;1.35;;;;;;;1.38;62.12;100240.72;5115141;28;20077;-82
2022/04/17 00:34:40;;;;;;;1.92;1.40;;;;;;;1.30;62.31;100239.47;5115173;28;20056;-79
2022/04/17 00:37:07;;;;;;;2.78;1.33;;;;;;;1.31;61.87;100251.53;5114644;28;20142;-82
2022/04/17 00:39:34;;;;;;;3.60;1.55;;;;;;;1.26;61.99;100242.69;5096711;28;20071;-81
2022/04/17 00:42:06;;;;;;;2.83;1.60;;;;;;;1.31;61.92;100248.97;5114743;28;20051;-82
2022/04/17 00:44:35;;;;;;;2.55;1.60;;;;;;;1.34;61.87;100254.25;5115556;28;20147;-80
2022/04/17 00:47:03;;;;;;;3.25;1.63;;;;;;;1.32;62.30;100244.69;5096644;28;20058;-79
2022/04/17 00:49:31;;;;;;;2.95;1.50;;;;;;;1.32;61.69;100253.28;5114809;28;20141;-81
2022/04/17 00:51:58;;;;;;;3.30;1.40;;;;;;;1.21;61.83;100227.03;5114677;28;20146;-82
2022/04/17 00:54:27;;;;;;;2.55;1.50;;;;;;;1.31;61.57;100263.50;5114499;28;20147;-80
2022/04/17 00:56:55;;;;;;;2.50;1.30;;;;;;;1.28;61.77;100248.81;5114544;28;20097;-79
2022/04/17 00:59:22;;;;;;;1.75;1.20;;;;;;;1.26;61.86;100265.88;5114389;28;20059;-79
2022/04/17 01:01:49;;;;;;;2.63;1.30;;;;;;;1.09;61.95;100221.31;5114424;28;20143;-79
2022/04/17 01:04:16;;;;;;;3.15;1.30;;;;;;;1.14;62.02;100232.72;5114422;28;20096;-80
2022/04/17 01:06:44;;;;;;;1.65;1.27;;;;;;;1.01;61.89;100227.78;5114620;28;20055;-80
2022/04/17 01:09:11;;;;;;;3.35;1.38;;;;;;;1.13;62.06;100263.53;5114289;28;20061;-82
2022/04/17 01:11:39;;;;;;;2.33;1.30;;;;;;;0.92;62.53;100217.94;5114599;28;20113;-81
2022/04/17 01:14:08;;;;;;;1.80;1.20;;;;;;;1.07;62.35;100240.06;5096178;28;20055;-81
2022/04/17 01:16:39;;;;;;;2.38;1.20;;;;;;;1.10;62.51;100253.06;5114131;28;20052;-78
2022/04/17 01:19:13;;;;;;;1.40;1.25;;;;;;;1.06;62.56;100249.50;5114243;28;20055;-81
2022/04/17 01:21:43;;;;;;;1.50;1.20;;;;;;;1.01;62.69;100253.50;5106657;28;20063;-78
2022/04/17 01:26:59;;;;;;;1.38;1.27;;;;;;;1.00;62.83;100255.22;5109633;28;20135;-79
2022/04/17 01:29:37;;;;;;;3.05;1.60;;;;;;;1.00;62.93;100251.78;5102848;28;20055;-80
2022/04/17 01:32:06;;;;;;;3.22;1.42;;;;;;;1.00;62.91;100269.78;5093339;28;20080;-81
2022/04/17 01:34:34;;;;;;;2.75;1.20;;;;;;;1.01;63.10;100272.44;5092782;28;20059;-78
2022/04/17 01:37:02;;;;;;;2.55;1.25;;;;;;;0.96;62.60;100262.72;5093680;28;20075;-81
2022/04/17 01:39:29;;;;;;;1.98;1.20;;;;;;;0.90;62.67;100271.00;5074966;28;20463;-81
2022/04/17 01:41:58;;;;;;;2.38;1.30;;;;;;;0.86;63.11;100273.38;5093738;28;20048;-80
2022/04/17 01:44:28;;;;;;;2.00;1.10;;;;;;;0.82;63.15;100268.09;5093312;28;20059;-80
2022/04/17 01:46:56;;;;;;;2.88;1.38;;;;;;;0.66;63.09;100244.09;5093260;28;20058;-80
2022/04/17 01:49:23;;;;;;;3.28;1.55;;;;;;;0.76;63.50;100267.78;5075388;28;20055;-80
2022/04/17 01:51:52;;;;;;;2.25;1.15;;;;;;;0.80;62.94;100268.81;5075424;28;20135;-79
2022/04/17 01:54:19;;;;;;;1.10;1.00;;;;;;;0.77;62.88;100278.94;5093068;28;20054;-83
2022/04/17 01:56:49;;;;;;;1.35;1.00;;;;;;;0.68;63.04;100260.50;5093248;28;20048;-81
2022/04/17 01:59:21;;;;;;;1.80;1.20;;;;;;;0.54;63.11;100221.25;5092965;28;20102;-81
2022/04/17 02:01:50;;;;;;;3.28;1.30;;;;;;;0.73;62.50;100254.78;5093357;28;20055;-77
2022/04/17 02:04:17;;;;;;;2.03;1.48;;;;;;;0.34;62.88;100186.84;5093006;28;20052;-80
2022/04/17 02:06:45;;;;;;;1.95;1.10;;;;;;;0.80;62.56;100259.41;5093010;28;20080;-82
2022/04/17 02:09:13;;;;;;;3.28;1.35;;;;;;;0.62;62.07;100237.91;5092954;28;20493;-80
2022/04/17 02:11:42;;;;;;;1.50;0.93;;;;;;;0.54;62.00;100213.56;5093158;28;20056;-79
2022/04/17 02:14:10;;;;;;;2.45;1.50;;;;;;;0.66;62.08;100259.53;5092743;28;20142;-80
2022/04/17 02:16:38;;;;;;;1.85;1.50;;;;;;;0.55;62.29;100238.44;5092720;28;20055;-79
2022/04/17 02:19:06;;;;;;;1.15;1.05;;;;;;;0.68;61.86;100253.66;5098053;28;20055;-80
2022/04/17 02:21:33;;;;;;;3.25;1.02;;;;;;;0.73;61.89;100267.63;5112896;28;20526;-80
2022/04/17 02:24:00;;;;;;;1.48;0.95;;;;;;;0.67;61.90;100277.63;5105082;28;20501;-77
2022/04/17 02:26:29;;;;;;;1.90;1.20;;;;;;;0.71;61.35;100268.34;5092649;28;20048;-81
2022/04/17 02:28:56;;;;;;;4.18;1.25;;;;;;;0.79;61.81;100287.63;5095768;28;20081;-81
2022/04/17 02:31:24;;;;;;;3.55;1.00;;;;;;;0.79;61.40;100274.75;5112808;28;20151;-82
2022/04/17 02:33:51;;;;;;;1.25;1.02;;;;;;;0.85;60.99;100279.31;5113235;28;20055;-82
2022/04/17 02:36:19;;;;;;;2.50;1.10;;;;;;;0.84;61.23;100285.25;5112938;28;20052;-81
2022/04/17 02:38:46;;;;;;;1.88;1.17;;;;;;;0.73;61.07;100261.59;5113221;28;20059;-80
2022/04/17 02:41:13;;;;;;;1.83;1.00;;;;;;;0.77;60.93;100266.09;5099299;28;20047;-81
2022/04/17 02:43:40;;;;;;;1.40;1.20;;;;;;;0.85;60.68;100267.34;5114747;28;20501;-81
2022/04/17 02:46:07;;;;;;;2.88;1.17;;;;;;;0.78;61.00;100260.16;5116462;28;20134;-78
2022/04/17 02:48:35;;;;;;;1.70;1.00;;;;;;;0.87;60.25;100282.84;5117441;28;20086;-79
2022/04/17 02:51:02;;;;;;;2.30;1.27;;;;;;;0.69;60.19;100259.66;5117198;28;20061;-81
2022/04/17 02:53:32;;;;;;;2.13;1.50;;;;;;;0.86;60.41;100273.38;5117037;28;20075;-81
2022/04/17 02:56:00;;;;;;;1.95;1.10;;;;;;;0.91;60.42;100275.38;5117214;28;20042;-81
2022/04/17 02:58:28;;;;;;;1.30;1.15;;;;;;;0.84;60.41;100275.88;5118211;28;20063;-80
2022/04/17 03:06:26;;;;;;;1.98;1.10;;;;;;;0.73;60.06;100270.22;5117016;28;20062;-78
2022/04/17 03:08:53;;;;;;;1.02;1.00;;;;;;;0.81;60.14;100283.44;5099490;28;20113;-80
2022/04/17 03:11:20;;;;;;;1.42;0.90;;;;;;;0.81;59.95;100310.03;5120718;28;20117;-79
2022/04/17 03:13:48;;;;;;;1.23;1.13;;;;;;;0.75;59.90;100296.88;5136511;28;20051;-78
2022/04/17 03:16:15;;;;;;;1.10;1.00;;;;;;;0.79;60.14;100300.47;5126923;28;20108;-79
2022/04/17 03:18:43;;;;;;;1.27;0.70;;;;;;;0.72;59.82;100304.44;5125141;28;20566;-81
2022/04/17 03:21:10;;;;;;;4.35;1.05;;;;;;;0.66;59.48;100280.09;5120703;28;20043;-80
2022/04/17 03:23:37;;;;;;;2.50;1.38;;;;;;;0.72;60.12;100301.88;5118126;28;20054;-78
2022/04/17 03:26:04;;;;;;;2.17;1.15;;;;;;;0.74;59.71;100299.38;5116636;28;20052;-81
2022/04/17 03:28:31;;;;;;;2.70;1.17;;;;;;;0.73;59.83;100310.44;5108638;28;20112;-82
2022/04/17 03:30:58;;;;;;;3.33;1.38;;;;;;;0.83;59.88;100322.97;5095924;28;20048;-82
2022/04/17 03:33:28;;;;;;;1.17;0.98;;;;;;;0.80;59.23;100321.13;5095953;28;20080;-79
2022/04/17 03:35:56;;;;;;;3.78;1.25;;;;;;;0.67;59.67;100305.91;5095906;28;20055;-80
2022/04/17 03:38:24;;;;;;;1.10;0.77;;;;;;;0.77;59.30;100313.25;5077581;28;20067;-80
2022/04/17 03:40:51;;;;;;;2.65;1.20;;;;;;;0.84;59.22;100326.41;5077633;28;20097;-80
2022/04/17 03:43:18;;;;;;;3.72;1.40;;;;;;;0.84;59.22;100306.75;5095582;28;20060;-79
2022/04/17 03:45:47;;;;;;;2.60;1.00;;;;;;;0.78;59.11;100320.16;5095532;28;20052;-79
2022/04/17 03:48:17;;;;;;;1.38;0.90;;;;;;;0.82;59.47;100314.38;5095366;28;20509;-79
2022/04/17 03:50:47;;;;;;;2.13;1.05;;;;;;;0.75;58.96;100316.56;5095637;28;20055;-77
2022/04/17 03:53:14;;;;;;;2.60;1.20;;;;;;;0.73;59.27;100302.75;5077542;28;20424;-83
2022/04/17 03:55:41;;;;;;;2.95;1.20;;;;;;;0.79;59.10;100297.91;5098621;28;20052;-78
2022/04/17 03:58:08;;;;;;;1.33;1.02;;;;;;;0.89;59.06;100318.13;5101043;28;20063;-78
2022/04/17 04:00:54;;;;;;;1.48;1.10;;;;;;;0.81;59.14;100314.28;5095671;28;20447;-78
2022/04/17 04:03:21;;;;;;;2.80;1.30;;;;;;;0.91;59.28;100315.66;5094962;28;20475;-79
2022/04/17 04:05:48;;;;;;;2.40;1.90;;;;;;;0.87;58.87;100322.31;5077075;28;20142;-79
2022/04/17 04:08:15;;;;;;;1.35;1.08;;;;;;;0.91;59.21;100323.38;5095034;28;20105;-80
2022/04/17 04:10:42;;;;;;;2.75;1.00;;;;;;;0.78;58.86;100316.72;5094881;28;20055;-78
2022/04/17 04:13:09;;;;;;;2.63;1.05;;;;;;;0.80;59.50;100327.97;5076885;28;20051;-79
2022/04/17 04:15:36;;;;;;;2.63;1.02;;;;;;;0.72;59.16;100330.16;5094722;28;20466;-80
2022/04/17 04:18:03;;;;;;;5.32;1.48;;;;;;;0.70;59.65;100331.75;5076571;28;20470;-80
2022/04/17 04:20:31;;;;;;;2.95;1.10;;;;;;;0.77;59.95;100333.81;5076800;28;20505;-79
2022/04/17 04:22:57;;;;;;;2.65;1.30;;;;;;;0.72;60.39;100327.56;5076717;28;20071;-79
2022/04/17 04:25:24;;;;;;;2.55;1.10;;;;;;;0.86;60.14;100338.56;5095036;28;20048;-80
2022/04/17 04:30:37;;;;;;;2.17;1.00;;;;;;;0.79;60.41;100349.34;5094468;28;20055;-80
2022/04/17 04:33:04;;;;;;;1.80;1.45;;;;;;;0.69;60.90;100354.81;5094472;28;20402;-81
2022/04/17 04:35:33;;;;;;;1.33;1.10;;;;;;;0.74;61.24;100358.53;5101838;28;20052;-79
2022/04/17 04:38:01;;;;;;;4.13;1.33;;;;;;;0.75;61.70;100334.56;5102960;28;20505;-79
2022/04/17 04:40:29;;;;;;;2.13;1.10;;;;;;;0.86;60.93;100330.84;5097836;28;20101;-79
2022/04/17 04:42:58;;;;;;;1.95;1.13;;;;;;;0.94;60.97;100362.97;5094490;28;20052;-76
2022/04/17 04:48:11;;;;;;;3.15;1.30;;;;;;;0.76;62.09;100404.09;5093988;28;20071;-78
2022/04/17 04:50:39;;;;;;;1.98;1.10;;;;;;;0.73;62.28;100369.59;5093807;28;20043;-78
2022/04/17 04:53:06;;;;;;;3.72;1.38;;;;;;;0.78;62.57;100381.91;5093594;28;20047;-79
2022/04/17 04:55:32;;;;;;;3.22;1.50;;;;;;;0.79;62.36;100364.78;5090842;28;20074;-78
2022/04/17 04:58:01;;;;;;;1.80;1.20;;;;;;;0.72;62.79;100363.59;5093680;28;20505;-77
2022/04/17 05:00:28;;;;;;;2.38;1.23;;;;;;;0.82;62.49;100365.81;5074840;28;20052;-77
2022/04/17 05:02:55;;;;;;;1.50;1.08;;;;;;;0.86;62.37;100371.09;5093751;28;20147;-80
2022/04/17 05:05:22;;;;;;;2.13;1.27;;;;;;;0.93;62.57;100362.91;5093488;28;20048;-78
2022/04/17 05:07:49;;;;;;;2.42;1.08;;;;;;;1.13;62.50;100357.03;5093490;28;20078;-78
2022/04/17 05:10:16;;;;;;;1.95;1.00;;;;;;;1.22;61.83;100383.22;5075242;28;20567;-79
2022/04/17 05:12:43;;;;;;;2.47;1.13;;;;;;;1.06;61.96;100352.41;5093669;28;20077;-80
2022/04/17 05:15:11;;;;;;;3.08;1.08;;;;;;;1.20;62.10;100353.06;5059673;28;20040;-79
2022/04/17 05:17:38;;;;;;;2.78;1.38;;;;;;;1.30;61.89;100355.28;5093579;28;20048;-81
2022/04/17 05:20:05;;;;;;;3.17;1.40;;;;;;;1.32;61.64;100348.53;5092280;28;20101;-81
2022/04/17 05:22:33;;;;;;;2.30;1.40;;;;;;;1.38;62.21;100373.69;5092454;28;20074;-83
2022/04/17 05:25:01;;;;;;;2.88;1.30;;;;;;;1.42;62.16;100355.00;5092093;28;20047;-81
2022/04/17 05:27:28;;;;;;;2.35;1.42;;;;;;;1.47;61.71;100327.78;5092181;28;20067;-81
2022/04/17 05:29:55;;;;;;;2.08;1.00;;;;;;;1.70;61.37;100340.84;5092254;28;20176;-80
2022/04/17 05:32:23;;;;;;;1.48;0.98;;;;;;;1.55;61.42;100325.56;5091865;28;20153;-80
2022/04/17 05:34:50;;;;;;;3.78;1.70;;;;;;;1.56;61.54;100325.63;5073765;28;20052;-80
2022/04/17 05:37:17;;;;;;;3.00;1.25;;;;;;;1.68;61.00;100339.88;5092366;28;20048;-80
2022/04/17 05:39:44;;;;;;;4.45;1.65;;;;;;;1.58;60.87;100362.63;5091984;28;20064;-80
2022/04/17 05:42:12;;;;;;;3.53;1.30;;;;;;;1.36;61.18;100310.97;5092910;28;20109;-80
2022/04/17 05:44:45;;;;;;;1.67;1.00;;;;;;;1.51;60.42;100363.16;5080138;28;20138;-80
2022/04/17 05:47:14;;;;;;;1.88;1.20;;;;;;;1.32;60.52;100322.78;5096698;28;20051;-80
2022/04/17 05:49:41;;;;;;;3.00;1.20;;;;;;;1.58;60.68;100347.19;5073881;28;20485;-80
2022/04/17 05:52:08;;;;;;;2.75;1.10;;;;;;;1.65;60.38;100338.06;5092321;28;20052;-81
2022/04/17 05:54:35;;;;;;;1.48;1.00;;;;;;;1.64;60.32;100352.63;5092096;28;20192;-81
2022/04/17 05:57:02;;;;;;;2.88;1.50;;;;;;;1.63;60.63;100339.66;5073720;28;20066;-79
2022/04/17 05:59:30;;;;;;;2.47;1.30;;;;;;;1.67;60.20;100359.63;5092093;28;20048;-80
2022/04/17 06:01:57;;;;;;;4.53;1.95;;;;;;;1.91;59.95;100364.13;5074233;28;20056;-78
2022/04/17 06:05:30;;;;;;;3.53;1.48;;;;;;;1.99;59.32;100360.22;5084411;28;20051;-79
2022/04/17 06:07:57;;;;;;;1.85;1.52;;;;;;;1.92;59.24;100346.19;5074605;28;20113;-83
2022/04/17 06:10:24;;;;;;;2.50;1.30;;;;;;;1.97;59.30;100385.03;5073670;28;20497;-79
2022/04/17 06:12:50;;;;;;;2.85;1.75;;;;;;;1.87;59.60;100388.00;5091699;28;20076;-80
2022/04/17 06:15:19;;;;;;;4.05;1.45;;;;;;;1.92;59.70;100373.66;5091935;28;20063;-80
2022/04/17 06:17:46;;;;;;;2.28;1.17;;;;;;;1.80;59.70;100361.06;5057236;28;20056;-79
2022/04/17 06:20:15;;;;;;;2.78;1.15;;;;;;;1.88;59.81;100400.09;5056875;28;20134;-78
2022/04/17 06:22:42;;;;;;;3.47;1.15;;;;;;;1.78;59.76;100421.94;5102695;28;20052;-80
2022/04/17 06:25:12;;;;;;;2.85;1.35;;;;;;;1.69;59.42;100431.81;5091789;28;20048;-80
2022/04/17 06:27:40;;;;;;;;;;;;;;;1.42;59.51;100407.38;5092246;28;20056;-81
2022/04/17 06:30:18;;;;;;;1.30;1.00;;;;;;;1.42;60.04;100403.94;5091681;28;20309;-80
2022/04/17 06:32:46;;;;;;;2.13;1.15;;;;;;;1.60;59.69;100407.38;5091858;28;20058;-80
2022/04/17 06:35:18;;;;;;;3.55;1.50;;;;;;;1.76;58.92;100418.41;5091722;28;20214;-80
2022/04/17 06:37:53;;;;;;;3.70;1.80;;;;;;;1.67;58.90;100382.78;5091767;28;20070;-82
2022/04/17 06:40:28;;;;;;;4.65;1.40;;;;;;;1.81;59.01;100404.06;5073018;28;20537;-79
2022/04/17 06:43:05;;;;;;;2.05;1.15;;;;;;;1.75;58.90;100391.78;5074540;28;20052;-80
2022/04/17 06:45:34;;;;;;;2.72;1.58;;;;;;;1.83;58.80;100398.16;5094012;28;20101;-80
2022/04/17 06:48:17;;;;;;;4.30;1.60;;;;;;;1.99;58.67;100404.03;5073497;28;20525;-81
2022/04/17 06:50:51;;;;;;;4.20;1.30;;;;;;;1.96;58.12;100433.13;5092582;28;20076;-82
2022/04/17 06:53:19;;;;;;;4.53;1.48;;;;;;;1.75;58.42;100389.19;5057783;28;20447;-81
2022/04/17 06:55:48;;;;;;;5.65;1.38;;;;;;;1.84;58.45;100394.78;5092183;28;20056;-80
2022/04/17 06:58:20;;;;;;;;;;;;;;;1.90;58.71;100401.03;5092543;28;20084;-83
2022/04/17 07:00:53;;;;;;;2.45;1.10;;;;;;;2.13;58.39;100439.06;5092224;28;19950;-79
2022/04/17 07:03:47;;;;;;;1.63;1.00;;;;;;;2.02;57.58;100405.06;5074428;28;20412;-82
2022/04/17 07:06:14;;;;;;;1.30;1.13;;;;;;;2.12;57.82;100431.25;5088378;28;20511;-79
2022/04/17 07:08:41;;;;;;;1.42;0.90;;;;;;;2.01;57.64;100439.38;5091907;28;20082;-79
2022/04/17 07:11:08;;;;;;;4.78;1.70;;;;;;;2.07;58.19;100406.97;5111540;28;20082;-80
2022/04/17 07:13:35;;;;;;;2.15;1.50;;;;;;;2.34;57.93;100404.75;5112291;28;20052;-80
2022/04/17 07:16:02;;;;;;;3.15;1.30;;;;;;;2.58;57.25;100439.41;5102314;28;20147;-79
2022/04/17 07:18:32;;;;;;;2.55;1.02;;;;;;;2.38;57.14;100404.09;5074170;28;20524;-80
2022/04/17 07:21:03;;;;;;;4.78;1.88;;;;;;;2.64;56.88;100428.44;5074761;28;20063;-78
2022/04/17 07:23:31;;;;;;;1.60;1.00;;;;;;;2.78;56.15;100439.41;5091888;28;20052;-79
2022/04/17 07:26:05;;;;;;;2.35;1.27;;;;;;;2.52;56.09;100407.25;5092046;28;20146;-81
2022/04/17 07:28:37;;;;;;;2.67;1.10;;;;;;;2.74;55.98;100442.66;5091440;28;20459;-78
2022/04/17 07:31:04;;;;;;;1.75;1.25;;;;;;;2.88;55.73;100423.47;5091646;28;20470;-79
2022/04/17 07:33:31;;;;;;;2.30;1.30;;;;;;;3.06;55.16;100411.38;5094704;28;20055;-78
2022/04/17 07:35:58;;;;;;;2.47;1.25;;;;;;;3.17;54.67;100454.84;5077684;28;20044;-79
2022/04/17 07:38:25;;;;;;;2.67;1.25;;;;;;;3.10;54.31;100448.53;5077331;28;20566;-79
2022/04/17 07:40:52;;;;;;;2.25;1.23;;;;;;;3.03;53.93;100446.47;5077004;28;20052;-80
2022/04/17 07:43:20;;;;;;;2.03;1.25;;;;;;;2.90;54.24;100421.84;5097579;28;20044;-79
2022/04/17 07:45:47;;;;;;;3.38;1.25;;;;;;;3.25;53.78;100443.13;5060086;28;20052;-81
2022/04/17 07:48:16;;;;;;;4.07;1.30;;;;;;;3.37;53.27;100425.53;5066205;28;20067;-81
2022/04/17 07:50:44;;;;;;;1.58;1.15;;;;;;;3.58;53.55;100445.34;5082433;28;20432;-80
2022/04/17 07:53:16;;;;;;;1.88;1.20;;;;;;;3.61;52.50;100450.63;5061920;28;20052;-78
2022/04/17 07:55:43;;;;;;;1.48;0.85;;;;;;;3.37;52.18;100499.56;5094902;28;20048;-77
2022/04/17 07:58:32;;;;;;;1.23;1.13;;;;;;;3.16;52.87;100461.69;5076644;28;20048;-79
2022/04/17 08:00:59;;;;;;;1.67;0.98;;;;;;;3.26;52.90;100484.50;5079881;28;20055;-80
2022/04/17 08:05:56;;;;;;;2.08;0.90;;;;;;;3.13;52.13;100430.56;5043915;28;20570;-79
2022/04/17 08:08:23;;;;;;;1.17;1.00;;;;;;;3.20;52.36;100457.53;5094994;28;20048;-80
2022/04/17 08:10:51;;;;;;;1.65;1.27;;;;;;;3.42;51.81;100439.53;5073614;28;20052;-80
2022/04/17 08:13:20;;;;;;;1.10;0.93;;;;;;;3.58;51.24;100447.91;5079329;28;20079;-80
2022/04/17 08:15:59;;;;;;;3.17;1.33;;;;;;;3.40;51.24;100424.78;5078591;28;20056;-80
2022/04/17 08:18:26;;;;;;;1.02;0.93;;;;;;;3.20;51.20;100377.50;5061453;28;20587;-79
2022/04/17 08:20:54;;;;;;;2.63;1.42;;;;;;;3.73;51.68;100479.53;5078338;28;20588;-79
2022/04/17 08:23:23;;;;;;;4.25;1.63;;;;;;;3.66;50.91;100467.22;5077499;28;20048;-81
2022/04/17 08:25:50;;;;;;;2.88;1.02;;;;;;;3.85;50.77;100477.47;5060638;28;20070;-80
2022/04/17 08:28:17;;;;;;;2.33;1.20;;;;;;;3.31;50.33;100401.16;5095260;28;20431;-81
2022/04/17 08:30:45;;;;;;;3.80;1.27;;;;;;;3.70;50.75;100469.09;5076567;28;20071;-79
2022/04/17 08:33:12;;;;;;;1.35;1.05;;;;;;;3.51;50.04;100427.81;5077446;28;20082;-78
2022/04/17 08:35:39;;;;;;;3.20;1.20;;;;;;;3.86;50.02;100431.81;5075880;28;20509;-80
2022/04/17 08:38:06;;;;;;;3.67;1.15;;;;;;;4.03;49.47;100456.63;5093608;28;20105;-78
2022/04/17 08:40:37;;;;;;;2.05;0.95;;;;;;;3.75;49.46;100394.34;5094570;28;20056;-79
2022/04/17 08:43:06;;;;;;;0.73;0.73;;;;;;;3.93;49.01;100440.69;5059304;28;20048;-79
2022/04/17 08:45:40;;;;;;;1.75;0.98;;;;;;;3.90;49.24;100475.06;5075617;28;20048;-78
2022/04/17 08:48:08;;;;;;;2.00;1.00;;;;;;;4.14;48.69;100438.94;5093973;28;20592;-79
2022/04/17 08:50:40;;;;;;;2.33;1.02;;;;;;;4.19;48.16;100433.94;5076427;28;20048;-79
2022/04/17 08:53:10;;;;;;;3.08;1.40;;;;;;;4.62;48.15;100451.94;5093693;28;20064;-79
2022/04/17 08:55:37;;;;;;;1.38;1.10;;;;;;;4.77;47.94;100463.69;5094948;28;20106;-79
2022/04/17 08:58:04;;;;;;;3.72;1.10;;;;;;;4.90;47.83;100450.34;5076513;28;20044;-79
2022/04/17 09:00:32;;;;;;;2.65;1.33;;;;;;;5.01;47.77;100449.03;5094091;28;20055;-77
2022/04/17 09:02:59;;;;;;;1.45;1.13;;;;;;;4.95;47.07;100425.53;5094274;28;20060;-79
2022/04/17 09:05:32;;;;;;;3.75;1.30;;;;;;;5.34;47.39;100451.03;5094512;28;20059;-78
2022/04/17 09:08:12;;;;;;;3.80;1.48;;;;;;;5.52;46.23;100445.56;5075194;28;20109;-78
2022/04/17 09:10:39;;;;;;;4.15;0.80;;;;;;;5.70;45.64;100438.41;5075671;28;20078;-79
2022/04/17 09:13:06;;;;;;;3.55;1.60;;;;;;;5.84;45.82;100437.97;5093772;28;20068;-78
2022/04/17 09:15:37;;;;;;;4.05;1.25;;;;;;;6.28;44.77;100436.78;5093523;28;20059;-81
2022/04/17 09:18:08;;;;;;;3.38;1.42;;;;;;;6.39;44.32;100454.34;5093508;28;20078;-79
2022/04/17 09:20:46;;;;;;;3.20;1.20;;;;;;;6.17;43.59;100477.06;5075377;28;20040;-78
2022/04/17 09:23:13;;;;;;;4.47;1.08;;;;;;;6.00;43.86;100488.63;5093542;28;20513;-78
2022/04/17 09:25:45;;;;;;;1.73;1.00;;;;;;;6.02;43.96;100473.97;5093097;28;20123;-77
2022/04/17 09:28:12;;;;;;;2.38;1.23;;;;;;;6.15;44.22;100482.22;5093522;28;20062;-80
2022/04/17 09:30:42;;;;;;;1.83;1.17;;;;;;;6.03;43.54;100434.25;5075040;28;20438;-81
2022/04/17 09:33:14;;;;;;;1.90;1.27;;;;;;;6.13;42.80;100444.06;5093319;28;20052;-81
2022/04/17 09:35:53;;;;;;;2.30;1.30;;;;;;;6.28;43.29;100467.91;5092746;28;20390;-80
2022/04/17 09:38:26;;;;;;;2.63;1.50;;;;;;;6.54;42.72;100460.03;5092953;28;20075;-81
2022/04/17 09:41:13;;;;;;;2.67;1.08;;;;;;;6.49;42.64;100475.44;5093215;28;20047;-80
2022/04/17 09:43:43;;;;;;;1.08;0.82;;;;;;;6.33;42.36;100463.72;5059543;28;20058;-80
2022/04/17 09:46:11;;;;;;;4.53;1.13;;;;;;;6.17;42.13;100466.69;5092755;28;20059;-79
2022/04/17 09:48:40;;;;;;;2.97;1.40;;;;;;;6.04;42.07;100468.00;5092997;28;20060;-81
2022/04/17 09:51:30;;;;;;;1.40;1.10;;;;;;;6.04;42.65;100495.66;5093013;28;20056;-80
2022/04/17 09:54:05;;;;;;;3.50;1.17;;;;;;;6.06;42.25;100475.84;5065977;28;20412;-80
2022/04/17 09:56:35;;;;;;;1.13;1.08;;;;;;;5.87;42.22;100476.94;5092437;28;20416;-81
2022/04/17 09:59:21;;;;;;;1.48;1.10;;;;;;;5.91;42.33;100443.38;5074503;28;20061;-80
2022/04/17 10:01:54;;;;;;;2.30;1.40;;;;;;;6.22;41.97;100434.00;5092887;28;20060;-80
2022/04/17 10:04:24;;;;;;;2.85;1.63;;;;;;;6.48;41.36;100454.66;5072905;28;20686;-78
2022/04/17 10:06:53;;;;;;;5.65;1.85;;;;;;;6.51;41.20;100462.50;5054512;28;20414;-79
2022/04/17 10:09:23;;;;;;;2.30;1.23;;;;;;;6.19;41.40;100462.41;5072381;28;20067;-80
2022/04/17 10:11:51;;;;;;;6.05;2.60;;;;;;;6.03;41.63;100455.00;5072097;28;20148;-81
2022/04/17 10:14:20;;;;;;;2.28;1.38;;;;;;;6.10;41.13;100450.03;5072133;28;20051;-80
2022/04/17 10:16:48;;;;;;;3.65;1.20;;;;;;;6.42;41.19;100475.22;5072046;28;20122;-79
2022/04/17 10:19:24;;;;;;;2.85;1.40;;;;;;;6.57;40.29;100488.66;5072654;28;20102;-80
2022/04/17 10:21:52;;;;;;;3.70;1.33;;;;;;;6.43;40.22;100477.88;5054477;28;20170;-81
2022/04/17 10:24:21;;;;;;;1.73;1.23;;;;;;;6.48;39.99;100480.59;5037544;28;20441;-79
2022/04/17 10:26:49;;;;;;;2.00;1.40;;;;;;;6.67;40.25;100485.50;5072028;28;20084;-79
2022/04/17 10:29:40;;;;;;;2.97;1.92;;;;;;;6.74;40.26;100477.03;5071947;28;20048;-79
2022/04/17 10:32:13;;;;;;;2.05;1.55;;;;;;;6.64;40.15;100484.50;5071995;28;20061;-80
2022/04/17 10:34:53;;;;;;;3.20;1.40;;;;;;;6.41;40.01;100510.69;5071972;28;20056;-81
2022/04/17 10:38:05;;;;;;;3.35;1.50;;;;;;;6.49;40.57;100492.72;5054574;28;20059;-80
2022/04/17 10:40:33;;;;;;;3.17;1.20;;;;;;;6.43;40.12;100459.69;5056084;28;20053;-80
2022/04/17 10:43:01;;;;;;;2.30;1.20;;;;;;;6.57;40.02;100479.13;5072031;28;20086;-78
2022/04/17 10:45:36;;;;;;;3.17;1.30;;;;;;;6.54;39.63;100476.47;5072380;28;20052;-80
2022/04/17 10:48:12;;;;;;;4.20;1.67;;;;;;;6.43;40.30;100485.66;5071798;28;20048;-80
2022/04/17 10:50:44;;;;;;;2.03;1.58;;;;;;;6.55;40.51;100485.13;5090236;28;20044;-78
2022/04/17 10:53:28;;;;;;;4.40;1.42;;;;;;;6.66;39.62;100469.84;5092291;28;20083;-79
2022/04/17 10:56:05;;;;;;;2.58;1.40;;;;;;;6.74;39.77;100497.81;5056223;28;20059;-80
2022/04/17 10:58:40;;;;;;;3.35;1.48;;;;;;;6.82;39.51;100469.47;5091936;28;20048;-79
2022/04/17 11:01:11;;;;;;;2.30;1.05;;;;;;;6.75;39.12;100460.63;5092109;28;20079;-80
2022/04/17 11:03:38;;;;;;;1.05;0.95;;;;;;;6.72;39.05;100459.66;5110178;28;20155;-79
2022/04/17 11:06:31;;;;;;;1.50;1.40;;;;;;;6.75;39.30;100472.72;5110764;28;20059;-81
2022/04/17 11:09:12;;;;;;;1.48;1.10;;;;;;;6.78;39.33;100456.38;5115790;28;20064;-79
2022/04/17 11:11:40;;;;;;;;;;;;;;;6.74;39.65;100457.97;5086122;28;20143;-78
2022/04/17 11:14:17;;;;;;;5.05;1.50;;;;;;;6.94;38.68;100482.78;5063088;28;19928;-80
2022/04/17 11:16:53;;;;;;;3.40;1.40;;;;;;;6.71;39.42;100469.16;5095482;28;20098;-80
2022/04/17 11:19:25;;;;;;;6.57;1.67;;;;;;;6.65;39.72;100460.31;5097601;28;20062;-79
2022/04/17 11:21:55;;;;;;;3.60;1.17;;;;;;;6.53;38.97;100461.72;5109893;28;20143;-78
2022/04/17 11:24:22;;;;;;;2.40;1.30;;;;;;;6.57;39.52;100457.50;5090324;28;20048;-78
2022/04/17 11:26:53;;;;;;;3.33;1.40;;;;;;;6.54;39.55;100463.47;5074946;28;20142;-79
2022/04/17 11:29:40;;;;;;;3.00;1.77;;;;;;;6.48;39.65;100470.22;5075338;28;20059;-78
2022/04/17 11:32:19;;;;;;;6.03;1.35;;;;;;;6.74;39.84;100457.97;5086161;28;20150;-79
2022/04/17 11:34:56;;;;;;;3.83;1.40;;;;;;;6.85;39.28;100446.16;5094863;28;20105;-79
2022/04/17 11:37:27;;;;;;;3.25;1.70;;;;;;;6.53;39.39;100419.31;5096838;28;20058;-79
2022/04/17 11:40:07;;;;;;;4.07;1.95;;;;;;;7.04;39.13;100450.16;5105483;28;20082;-77
2022/04/17 11:42:43;;;;;;;2.25;1.42;;;;;;;7.09;39.05;100471.94;5063684;28;20052;-79
2022/04/17 11:45:20;;;;;;;2.85;1.23;;;;;;;7.10;39.30;100447.72;5107197;28;20501;-79
2022/04/17 11:47:48;;;;;;;4.72;1.50;;;;;;;7.25;38.85;100451.53;5093388;28;20055;-78
2022/04/17 11:50:27;;;;;;;2.97;1.33;;;;;;;7.37;38.40;100439.75;5108139;28;20052;-80
2022/04/17 11:52:56;;;;;;;8.02;1.58;;;;;;;7.56;38.15;100454.09;5074978;28;20060;-81
2022/04/17 11:55:29;;;;;;;3.45;1.55;;;;;;;7.54;38.44;100440.19;5056841;28;20398;-79
2022/04/17 11:57:57;;;;;;;1.55;1.38;;;;;;;7.66;38.27;100465.63;5074844;28;20056;-78
2022/04/17 12:00:26;;;;;;;1.63;1.27;;;;;;;7.54;38.35;100473.09;5074480;28;20584;-79
2022/04/17 12:03:11;;;;;;;2.83;1.60;;;;;;;7.27;38.27;100476.75;5074281;28;20129;-79